Scottsmoor, Florida
Current Conditions -  °F | °C
As of 2:58 PM on Monday 26 Jan 2015 (Local Time) from KTTS Reporting Station
Clear Clear  
Wind Chill: 65°   Ceiling: Unl
Heat Index: 65°   Visibility: 10mi
Dew Point: 42°   Wind: 25mph
Humidity: 42%   Direction: 290°WNW
Pressure: 29.79"   Gusts: 33mph
Location:  28.77°N, 80.88°W
Report Text: KTTS 261958Z AUTO 29022G29KT 10SM CLR 19/05 A2979 RMK AO2 PK WND 27034/24 SLP091 T01860053
Loading
Personal Weather Stations






























Interactive Weather Map New forecast layout! Learn more

10-Day Weather Forecast

Advertisements
Track Severe Weather on mobile